Time;durP1;ratioP1;P1;durP2;ratioP2;P2;SDS_P1;SDS_P2;PMS_P1;PMS_P2;Temp;Humidity;BMP_temperature;BMP_pressure;BME280_temperature;BME280_humidity;BME280_pressure;Samples;Min_cycle;Max_cycle;Signal;HPM_P1;HPM_P2
2024/02/25 00:01:28;;;;;;;9.68;6.72;;;4.90;99.90;;;;;;5089316;28;20636;-75
2024/02/25 00:03:55;;;;;;;8.50;4.68;;;5.00;99.90;;;;;;5078797;28;20273;-73
2024/02/25 00:06:22;;;;;;;6.88;4.88;;;5.00;99.90;;;;;;5083581;28;20242;-75
2024/02/25 00:08:49;;;;;;;9.98;5.32;;;5.00;99.90;;;;;;5078505;28;20210;-75
2024/02/25 00:11:18;;;;;;;5.55;4.03;;;5.00;99.90;;;;;;5072749;28;20715;-75
2024/02/25 00:13:45;;;;;;;7.50;4.93;;;5.00;99.90;;;;;;5077303;28;20230;-75
2024/02/25 00:16:12;;;;;;;7.72;3.60;;;5.00;99.90;;;;;;5075490;28;20257;-75
2024/02/25 00:18:39;;;;;;;5.22;4.45;;;5.00;99.90;;;;;;5072454;28;20211;-72
2024/02/25 00:21:06;;;;;;;5.43;3.30;;;5.10;99.90;;;;;;5079185;28;20283;-74
2024/02/25 00:23:33;;;;;;;6.30;5.22;;;5.00;99.90;;;;;;5078358;28;20753;-72
2024/02/25 00:26:00;;;;;;;6.30;3.75;;;5.00;99.90;;;;;;5074328;28;20238;-72
2024/02/25 00:28:28;;;;;;;12.10;4.97;;;5.00;99.90;;;;;;5080612;28;20252;-75
2024/02/25 00:30:55;;;;;;;4.55;3.17;;;4.90;99.90;;;;;;5078778;28;20192;-76
2024/02/25 00:33:22;;;;;;;4.57;3.40;;;4.90;99.90;;;;;;5083892;28;20243;-74
2024/02/25 00:35:49;;;;;;;4.13;3.72;;;4.90;99.90;;;;;;5087878;28;20260;-73
2024/02/25 00:38:16;;;;;;;8.18;4.55;;;5.00;99.90;;;;;;5080323;28;20261;-72
2024/02/25 00:40:43;;;;;;;7.15;4.57;;;5.00;99.90;;;;;;5096185;28;20272;-73
2024/02/25 00:43:10;;;;;;;6.57;4.40;;;5.00;99.90;;;;;;5085681;28;20226;-77
2024/02/25 00:45:38;;;;;;;7.75;4.63;;;5.00;99.90;;;;;;5084407;28;20707;-72
2024/02/25 00:48:06;;;;;;;8.88;4.20;;;5.20;99.90;;;;;;5077876;28;20199;-73
2024/02/25 00:50:33;;;;;;;6.65;4.60;;;5.00;99.90;;;;;;5085127;28;20203;-75
2024/02/25 00:53:00;;;;;;;8.80;5.07;;;5.00;99.90;;;;;;5076503;28;20227;-75
2024/02/25 00:55:27;;;;;;;6.05;4.10;;;5.00;99.90;;;;;;5084886;28;20222;-73
2024/02/25 00:57:54;;;;;;;7.35;4.65;;;5.00;99.90;;;;;;5076510;28;20235;-73
2024/02/25 01:00:21;;;;;;;5.78;4.15;;;5.00;99.90;;;;;;5082100;28;20207;-74
2024/02/25 01:02:50;;;;;;;7.00;4.10;;;5.00;99.90;;;;;;5088177;28;20223;-73
2024/02/25 01:05:17;;;;;;;8.60;4.35;;;5.10;99.90;;;;;;5084308;28;20207;-74
2024/02/25 01:07:45;;;;;;;4.75;3.65;;;5.00;99.90;;;;;;5086899;28;20203;-72
2024/02/25 01:10:12;;;;;;;8.48;4.25;;;5.10;99.90;;;;;;5088412;28;20253;-75
2024/02/25 01:12:39;;;;;;;8.52;4.32;;;5.10;99.90;;;;;;5077577;28;20224;-73
2024/02/25 01:15:07;;;;;;;5.85;4.05;;;5.10;99.90;;;;;;5075364;28;20253;-75
2024/02/25 01:17:34;;;;;;;7.93;3.85;;;5.10;99.90;;;;;;5077152;28;20210;-72
2024/02/25 01:20:02;;;;;;;9.27;3.45;;;5.10;99.90;;;;;;5091845;28;20207;-74
2024/02/25 01:22:29;;;;;;;5.32;4.18;;;5.10;99.90;;;;;;5082539;28;20211;-73
2024/02/25 01:24:56;;;;;;;10.43;3.50;;;5.10;99.90;;;;;;5082379;28;20214;-74
2024/02/25 01:27:25;;;;;;;4.75;3.20;;;5.20;99.90;;;;;;5076252;28;20204;-74
2024/02/25 01:29:52;;;;;;;3.38;2.85;;;5.20;99.90;;;;;;5083856;28;20203;-75
2024/02/25 01:32:19;;;;;;;4.50;3.50;;;5.20;99.90;;;;;;5074437;28;20752;-73
2024/02/25 01:34:46;;;;;;;10.82;3.72;;;5.20;99.90;;;;;;5076435;28;20264;-73
2024/02/25 01:37:15;;;;;;;4.82;4.03;;;5.20;99.90;;;;;;5083787;28;20305;-74
2024/02/25 01:39:42;;;;;;;3.70;2.70;;;5.10;99.90;;;;;;5080626;28;20260;-72
2024/02/25 01:42:10;;;;;;;5.68;3.40;;;5.10;99.90;;;;;;5080994;28;20294;-73
2024/02/25 01:44:53;;;;;;;6.03;2.58;;;5.10;99.90;;;;;;5077221;28;20199;-75
2024/02/25 01:47:20;;;;;;;6.82;2.92;;;5.00;99.90;;;;;;5083592;28;20207;-74
2024/02/25 01:49:48;;;;;;;4.60;2.95;;;5.00;99.90;;;;;;5084768;28;20202;-72
2024/02/25 01:52:17;;;;;;;4.32;2.50;;;5.10;99.90;;;;;;5079966;28;20195;-73
2024/02/25 01:54:45;;;;;;;3.53;2.63;;;5.00;99.90;;;;;;5081848;28;20200;-73
2024/02/25 01:57:13;;;;;;;7.45;2.20;;;5.00;99.90;;;;;;5078829;28;20261;-74
2024/02/25 01:59:40;;;;;;;4.68;2.50;;;5.00;99.90;;;;;;5082152;28;20211;-73
2024/02/25 02:02:13;;;;;;;3.25;2.00;;;5.00;99.90;;;;;;5079683;28;20273;-73
2024/02/25 02:04:41;;;;;;;2.63;2.30;;;5.00;99.90;;;;;;5080442;28;20269;-72
2024/02/25 02:07:09;;;;;;;4.25;2.00;;;5.00;99.90;;;;;;5075374;28;20286;-74
2024/02/25 02:09:37;;;;;;;5.10;2.80;;;5.10;99.90;;;;;;5076679;28;20639;-73
2024/02/25 02:12:06;;;;;;;3.55;2.08;;;5.00;99.90;;;;;;5081834;28;20256;-74
2024/02/25 02:14:33;;;;;;;2.80;1.92;;;5.00;99.90;;;;;;5079051;28;20238;-75
2024/02/25 02:17:03;;;;;;;4.70;2.30;;;5.10;99.90;;;;;;5079868;28;20230;-72
2024/02/25 02:19:30;;;;;;;5.53;2.30;;;5.10;99.90;;;;;;5078346;28;20252;-71
2024/02/25 02:21:58;;;;;;;3.20;2.13;;;5.20;99.90;;;;;;5080711;28;20255;-73
2024/02/25 02:24:25;;;;;;;3.75;1.70;;;5.20;99.90;;;;;;5074502;28;20693;-71
2024/02/25 02:26:52;;;;;;;4.55;2.92;;;5.20;99.90;;;;;;5076526;28;20261;-73
2024/02/25 02:29:19;;;;;;;4.50;1.50;;;5.30;99.90;;;;;;5081956;28;20264;-75
2024/02/25 02:31:46;;;;;;;3.15;1.90;;;5.30;99.90;;;;;;5077099;28;20203;-72
2024/02/25 02:34:13;;;;;;;7.13;2.20;;;5.30;99.90;;;;;;5075366;28;20227;-74
2024/02/25 02:36:41;;;;;;;2.13;1.50;;;5.40;99.90;;;;;;5085015;28;20206;-72
2024/02/25 02:39:09;;;;;;;1.90;1.75;;;5.30;99.90;;;;;;5081263;28;20609;-75
2024/02/25 02:41:38;;;;;;;2.60;1.98;;;5.30;99.90;;;;;;5080990;28;20207;-74
2024/02/25 02:44:06;;;;;;;3.67;2.10;;;5.30;99.90;;;;;;5077446;28;20758;-71
2024/02/25 02:46:39;;;;;;;3.05;1.80;;;5.20;99.90;;;;;;5081424;28;20237;-75
2024/02/25 02:49:06;;;;;;;4.30;1.95;;;5.20;99.90;;;;;;5089164;28;20297;-72
2024/02/25 02:51:33;;;;;;;3.28;2.17;;;5.30;99.90;;;;;;5089806;28;20261;-71
2024/02/25 02:54:02;;;;;;;2.10;1.52;;;5.20;99.90;;;;;;5080564;28;20227;-74
2024/02/25 02:56:31;;;;;;;2.90;1.65;;;5.30;99.90;;;;;;5074954;28;20249;-74
2024/02/25 02:58:58;;;;;;;2.45;1.52;;;5.20;99.90;;;;;;5075202;28;20207;-75
2024/02/25 03:01:25;;;;;;;12.35;2.80;;;5.20;99.90;;;;;;5080755;28;20615;-73
2024/02/25 03:03:52;;;;;;;2.15;1.40;;;5.20;99.90;;;;;;5080900;28;20561;-72
2024/02/25 03:06:19;;;;;;;2.65;1.92;;;5.20;99.90;;;;;;5089447;28;20552;-72
2024/02/25 03:08:46;;;;;;;2.05;1.85;;;5.20;99.90;;;;;;5087311;28;20231;-76
2024/02/25 03:11:13;;;;;;;2.70;2.00;;;5.20;99.90;;;;;;5077692;28;20229;-71
2024/02/25 03:13:41;;;;;;;1.92;1.65;;;5.20;99.90;;;;;;5086704;28;20219;-75
2024/02/25 03:16:19;;;;;;;3.28;2.22;;;5.20;99.90;;;;;;5076783;27;20526;-72
2024/02/25 03:18:45;;;;;;;3.13;1.58;;;5.20;99.90;;;;;;5087049;28;20571;-75
2024/02/25 03:21:12;;;;;;;2.00;1.73;;;5.20;99.90;;;;;;5087557;28;20571;-72
2024/02/25 03:23:39;;;;;;;6.28;2.55;;;5.40;99.90;;;;;;5076896;28;20249;-76
2024/02/25 03:26:13;;;;;;;4.18;2.03;;;5.20;99.90;;;;;;5086589;28;20203;-71
2024/02/25 03:28:40;;;;;;;1.35;1.25;;;5.20;99.90;;;;;;5079451;28;20205;-72
2024/02/25 03:31:07;;;;;;;2.17;1.40;;;5.20;99.90;;;;;;5084390;28;20242;-72
2024/02/25 03:33:35;;;;;;;3.50;1.85;;;5.20;99.90;;;;;;5073792;28;20215;-75
2024/02/25 03:36:03;;;;;;;1.75;1.40;;;5.20;99.90;;;;;;5087896;28;20271;-74
2024/02/25 03:38:30;;;;;;;1.83;1.65;;;5.10;99.90;;;;;;5088810;28;20195;-74
2024/02/25 03:40:57;;;;;;;1.73;1.00;;;5.10;99.90;;;;;;5074853;28;20273;-73
2024/02/25 03:43:24;;;;;;;1.88;1.50;;;5.20;99.90;;;;;;5086035;28;20265;-75
2024/02/25 03:45:51;;;;;;;1.98;1.75;;;5.20;99.90;;;;;;5079449;28;20200;-71
2024/02/25 03:48:18;;;;;;;1.42;1.33;;;5.20;99.90;;;;;;5077700;28;20211;-72
2024/02/25 03:50:48;;;;;;;2.30;1.20;;;5.20;99.90;;;;;;5073534;28;20195;-73
2024/02/25 03:53:14;;;;;;;2.55;1.23;;;5.20;99.90;;;;;;5075734;28;20263;-71
2024/02/25 03:55:41;;;;;;;7.72;1.90;;;5.20;99.90;;;;;;5071512;28;20618;-76
2024/02/25 03:58:08;;;;;;;2.10;1.63;;;5.20;99.90;;;;;;5074357;28;20203;-75
2024/02/25 04:00:35;;;;;;;3.15;1.75;;;5.20;99.90;;;;;;5080651;28;20202;-71
2024/02/25 04:03:04;;;;;;;1.98;1.73;;;5.20;99.90;;;;;;5076122;28;20275;-73
2024/02/25 04:05:30;;;;;;;2.40;1.77;;;5.20;99.90;;;;;;5085199;28;20257;-71
2024/02/25 04:07:59;;;;;;;2.05;1.27;;;5.20;99.90;;;;;;5083701;28;20210;-75
2024/02/25 04:10:26;;;;;;;5.43;2.17;;;5.20;99.90;;;;;;5080258;28;20203;-74
2024/02/25 04:12:53;;;;;;;3.42;1.83;;;5.20;99.90;;;;;;5072816;28;20292;-73
2024/02/25 04:15:20;;;;;;;3.30;1.50;;;5.20;99.90;;;;;;5085058;28;20219;-72
2024/02/25 04:17:48;;;;;;;4.45;1.75;;;5.20;99.90;;;;;;5072835;28;20196;-75
2024/02/25 04:20:15;;;;;;;3.20;1.25;;;5.20;99.90;;;;;;5084617;28;20624;-74
2024/02/25 04:22:42;;;;;;;2.75;1.52;;;5.20;99.90;;;;;;5080282;28;20229;-73
2024/02/25 04:25:11;;;;;;;2.10;1.67;;;5.20;99.90;;;;;;5081450;28;20203;-72
2024/02/25 04:27:38;;;;;;;5.13;1.90;;;5.20;99.90;;;;;;5063230;28;20204;-73
2024/02/25 04:30:05;;;;;;;3.05;1.45;;;5.20;99.90;;;;;;5063598;28;20218;-73
2024/02/25 04:32:33;;;;;;;2.40;1.73;;;5.20;99.90;;;;;;5070824;28;20223;-76
2024/02/25 04:35:00;;;;;;;2.63;1.42;;;5.20;99.90;;;;;;5071023;28;20215;-72
2024/02/25 04:37:27;;;;;;;3.28;1.63;;;5.30;99.90;;;;;;5060318;28;20223;-74
2024/02/25 04:39:54;;;;;;;2.70;2.03;;;5.30;99.90;;;;;;5067668;28;20312;-77
2024/02/25 04:42:22;;;;;;;1.67;1.30;;;5.30;99.90;;;;;;5061792;28;20203;-72
2024/02/25 04:44:49;;;;;;;2.25;1.55;;;5.40;99.90;;;;;;5069655;28;20196;-76
2024/02/25 04:47:16;;;;;;;2.00;1.50;;;5.50;99.90;;;;;;5069837;28;20211;-75
2024/02/25 04:49:44;;;;;;;2.35;1.85;;;5.40;99.90;;;;;;5063296;28;20551;-73
2024/02/25 04:52:11;;;;;;;2.80;2.00;;;5.50;99.90;;;;;;5057332;28;20670;-75
2024/02/25 04:54:38;;;;;;;3.38;1.13;;;5.50;99.90;;;;;;5070165;28;20669;-76
2024/02/25 04:57:05;;;;;;;2.95;1.13;;;5.50;99.90;;;;;;5064681;28;20282;-77
2024/02/25 04:59:34;;;;;;;2.08;1.20;;;5.50;99.90;;;;;;5063381;28;20261;-75
2024/02/25 05:02:01;;;;;;;2.30;1.55;;;5.50;99.90;;;;;;5067725;28;20721;-75
2024/02/25 05:04:29;;;;;;;5.68;1.33;;;5.50;99.90;;;;;;5063062;28;20255;-75
2024/02/25 05:06:56;;;;;;;2.95;1.65;;;5.50;99.90;;;;;;5056664;28;20196;-74
2024/02/25 05:09:23;;;;;;;1.10;1.00;;;5.50;99.90;;;;;;5061517;28;20231;-75
2024/02/25 05:11:49;;;;;;;2.83;1.40;;;5.50;99.90;;;;;;5073778;28;20601;-74
2024/02/25 05:14:18;;;;;;;2.55;1.50;;;5.60;99.90;;;;;;5062892;28;20297;-74
2024/02/25 05:16:47;;;;;;;1.73;1.25;;;5.60;99.90;;;;;;5065977;28;20227;-72
2024/02/25 05:19:14;;;;;;;2.40;1.35;;;5.60;99.90;;;;;;5068123;28;20204;-74
2024/02/25 05:21:41;;;;;;;2.28;1.25;;;5.60;99.90;;;;;;5061576;28;20204;-74
2024/02/25 05:24:09;;;;;;;9.13;1.65;;;5.70;99.90;;;;;;5060458;28;20267;-72
2024/02/25 05:26:36;;;;;;;2.88;1.48;;;5.70;99.90;;;;;;5074296;28;20203;-74
2024/02/25 05:29:04;;;;;;;2.38;2.17;;;5.80;99.90;;;;;;5061478;28;20253;-76
2024/02/25 05:31:31;;;;;;;4.07;1.92;;;5.70;99.90;;;;;;5063627;28;20634;-76
2024/02/25 05:34:00;;;;;;;2.05;1.30;;;5.70;99.90;;;;;;5067730;28;20246;-75
2024/02/25 05:36:27;;;;;;;2.40;1.30;;;5.60;99.90;;;;;;5064879;28;20295;-73
2024/02/25 05:38:54;;;;;;;2.00;1.10;;;5.60;99.90;;;;;;5064383;28;20708;-76
2024/02/25 05:41:20;;;;;;;3.95;1.67;;;5.60;99.90;;;;;;5062953;28;20265;-73
2024/02/25 05:43:47;;;;;;;2.67;1.50;;;5.60;99.90;;;;;;5059145;28;20285;-76
2024/02/25 05:46:14;;;;;;;5.50;1.75;;;5.50;99.90;;;;;;5058101;28;20198;-75
2024/02/25 05:48:41;;;;;;;2.10;1.58;;;5.60;99.90;;;;;;5065136;28;20200;-75
2024/02/25 05:51:10;;;;;;;2.08;1.45;;;5.60;99.90;;;;;;5063522;28;20211;-75
2024/02/25 05:53:36;;;;;;;1.92;1.42;;;5.70;99.90;;;;;;5057052;28;20226;-74
2024/02/25 05:56:04;;;;;;;2.50;1.40;;;5.80;99.90;;;;;;5054276;28;20215;-75
2024/02/25 05:58:31;;;;;;;1.70;1.60;;;5.70;99.90;;;;;;5059408;28;20203;-74
2024/02/25 06:00:58;;;;;;;1.80;1.42;;;5.70;99.90;;;;;;5063514;28;20199;-73
2024/02/25 06:03:25;;;;;;;3.72;2.15;;;5.80;99.90;;;;;;5067437;28;20718;-74
2024/02/25 06:05:56;;;;;;;1.83;1.20;;;5.70;99.90;;;;;;5058797;28;20655;-76
2024/02/25 06:08:25;;;;;;;3.22;2.00;;;5.70;99.90;;;;;;5066721;28;20674;-76
2024/02/25 06:10:53;;;;;;;2.22;1.35;;;5.80;99.90;;;;;;5068427;28;20210;-77
2024/02/25 06:13:20;;;;;;;2.03;1.50;;;5.70;99.90;;;;;;5065663;28;20326;-76
2024/02/25 06:15:47;;;;;;;2.40;1.73;;;5.70;99.90;;;;;;5056485;28;20270;-76
2024/02/25 06:18:14;;;;;;;3.55;1.90;;;5.70;99.90;;;;;;5062704;28;20218;-75
2024/02/25 06:20:41;;;;;;;2.13;1.73;;;5.70;99.90;;;;;;5070436;28;20314;-75
2024/02/25 06:23:08;;;;;;;3.00;2.13;;;5.70;99.90;;;;;;5063676;28;20648;-73
2024/02/25 06:25:37;;;;;;;2.45;1.88;;;5.80;99.90;;;;;;5062498;28;20199;-75
2024/02/25 06:28:04;;;;;;;1.90;1.60;;;5.80;99.90;;;;;;5055028;28;20204;-76
2024/02/25 06:30:31;;;;;;;1.73;1.50;;;5.70;99.90;;;;;;5068581;28;20246;-76
2024/02/25 06:32:58;;;;;;;4.47;1.30;;;5.70;99.90;;;;;;5053925;28;20238;-76
2024/02/25 06:35:25;;;;;;;6.53;1.70;;;5.80;99.90;;;;;;5061785;28;20223;-75
2024/02/25 06:37:52;;;;;;;2.15;1.70;;;5.70;99.90;;;;;;5065513;28;20203;-76
2024/02/25 06:40:19;;;;;;;1.77;1.33;;;5.70;99.90;;;;;;5066104;28;20235;-75
2024/02/25 06:42:48;;;;;;;1.70;1.60;;;5.70;99.90;;;;;;5069808;28;20288;-75
2024/02/25 06:45:15;;;;;;;1.30;1.20;;;5.80;99.90;;;;;;5064887;28;20203;-76
2024/02/25 06:47:42;;;;;;;2.85;1.88;;;5.80;99.90;;;;;;5068787;28;20204;-74
2024/02/25 06:50:09;;;;;;;2.33;1.88;;;5.90;99.90;;;;;;5059630;28;20207;-75
2024/02/25 06:52:36;;;;;;;2.70;1.98;;;6.00;99.90;;;;;;5053008;28;20216;-75
2024/02/25 06:55:05;;;;;;;2.58;1.65;;;5.90;99.90;;;;;;5069953;28;20195;-75
2024/02/25 06:57:33;;;;;;;2.10;1.88;;;6.00;99.90;;;;;;5056362;28;20200;-75
2024/02/25 07:00:05;;;;;;;7.00;1.95;;;6.00;99.90;;;;;;5057405;28;20200;-73
2024/02/25 07:02:32;;;;;;;4.15;2.42;;;6.10;99.90;;;;;;5059372;28;20223;-73
2024/02/25 07:04:59;;;;;;;3.70;2.03;;;6.10;99.90;;;;;;5053966;28;20203;-74
2024/02/25 07:07:26;;;;;;;1.55;1.45;;;6.10;99.90;;;;;;5063750;28;20724;-73
2024/02/25 07:09:56;;;;;;;3.15;1.90;;;6.20;99.90;;;;;;5058073;28;20257;-76
2024/02/25 07:12:23;;;;;;;4.50;4.10;;;6.30;99.90;;;;;;5062285;28;20235;-75
2024/02/25 07:14:50;;;;;;;4.18;2.50;;;6.30;99.90;;;;;;5074625;28;20207;-74
2024/02/25 07:17:18;;;;;;;2.53;1.95;;;6.30;99.90;;;;;;5062936;28;20215;-74
2024/02/25 07:19:46;;;;;;;2.45;1.83;;;6.40;99.90;;;;;;5061448;28;20571;-74
2024/02/25 07:22:13;;;;;;;2.72;2.40;;;6.50;99.90;;;;;;5062469;28;20620;-73
2024/02/25 07:24:40;;;;;;;4.68;2.25;;;6.40;99.90;;;;;;5059817;28;20199;-73
2024/02/25 07:27:08;;;;;;;5.15;2.00;;;6.50;99.90;;;;;;5056256;28;20204;-73
2024/02/25 07:29:35;;;;;;;2.03;1.58;;;6.50;99.90;;;;;;5067523;28;20218;-74
2024/02/25 07:32:02;;;;;;;3.35;2.28;;;6.80;99.90;;;;;;5063380;28;20649;-75
2024/02/25 07:34:30;;;;;;;1.83;1.33;;;6.60;99.90;;;;;;5067575;28;20236;-75
2024/02/25 07:36:57;;;;;;;3.15;2.28;;;6.80;99.90;;;;;;5068084;28;20219;-75
2024/02/25 07:39:24;;;;;;;2.30;2.10;;;6.80;99.90;;;;;;5066605;28;20218;-74
2024/02/25 07:41:52;;;;;;;2.05;1.90;;;6.90;99.90;;;;;;5069179;28;20226;-73
2024/02/25 07:44:18;;;;;;;2.70;2.35;;;6.90;99.90;;;;;;5058553;28;20286;-74
2024/02/25 07:46:45;;;;;;;3.17;1.80;;;6.80;99.90;;;;;;5054450;28;20617;-74
2024/02/25 07:49:12;;;;;;;2.47;1.98;;;6.80;99.90;;;;;;5061111;28;20599;-75
2024/02/25 07:51:41;;;;;;;4.35;2.20;;;6.80;99.90;;;;;;5064346;28;20654;-72
2024/02/25 07:54:08;;;;;;;2.50;2.00;;;6.90;99.90;;;;;;5056222;28;20251;-77
2024/02/25 07:56:35;;;;;;;3.28;2.35;;;6.90;99.90;;;;;;5068723;28;20223;-75
2024/02/25 07:59:02;;;;;;;2.70;1.90;;;6.90;99.90;;;;;;5067402;28;20203;-72
2024/02/25 08:01:29;;;;;;;2.42;2.22;;;6.90;99.90;;;;;;5064960;28;20208;-72
2024/02/25 08:03:56;;;;;;;3.90;2.80;;;6.90;99.90;;;;;;5055843;28;20216;-71
2024/02/25 08:06:27;;;;;;;2.75;2.25;;;7.00;99.90;;;;;;5057471;28;20281;-72
2024/02/25 08:08:55;;;;;;;2.30;1.80;;;7.10;99.90;;;;;;5056387;28;20239;-74
2024/02/25 08:11:22;;;;;;;3.20;2.00;;;7.10;99.90;;;;;;5057390;28;20244;-73
2024/02/25 08:13:49;;;;;;;3.95;1.98;;;7.20;99.90;;;;;;5068245;28;20265;-73
2024/02/25 08:16:16;;;;;;;2.78;2.20;;;7.30;99.90;;;;;;5067302;28;20859;-75
2024/02/25 08:18:46;;;;;;;2.53;2.25;;;7.30;99.90;;;;;;5062752;28;20199;-75
2024/02/25 08:21:13;;;;;;;2.30;2.10;;;7.40;99.90;;;;;;5069342;28;20200;-74
2024/02/25 08:23:43;;;;;;;1.98;1.67;;;7.50;99.90;;;;;;5059547;28;20224;-76
2024/02/25 08:26:11;;;;;;;4.60;2.28;;;7.60;99.90;;;;;;5060891;28;20226;-73
2024/02/25 08:28:39;;;;;;;3.00;2.30;;;7.70;99.90;;;;;;5066871;28;20249;-74
2024/02/25 08:31:06;;;;;;;4.78;2.70;;;7.80;99.90;;;;;;5062830;28;20258;-74
2024/02/25 08:33:33;;;;;;;2.42;2.00;;;7.80;99.90;;;;;;5064654;28;20281;-73
2024/02/25 08:36:01;;;;;;;1.92;1.70;;;7.80;99.90;;;;;;5056708;28;20233;-75
2024/02/25 08:38:28;;;;;;;3.30;1.95;;;7.90;99.90;;;;;;5058775;28;20204;-76
2024/02/25 08:40:55;;;;;;;3.30;2.65;;;7.80;99.90;;;;;;5065720;28;20295;-74
2024/02/25 08:43:23;;;;;;;3.05;2.33;;;7.80;99.90;;;;;;5059539;28;20224;-75
2024/02/25 08:45:50;;;;;;;4.22;2.30;;;7.90;99.90;;;;;;5065044;28;20207;-75
2024/02/25 08:48:17;;;;;;;4.00;2.28;;;8.00;99.90;;;;;;5060582;28;20246;-76
2024/02/25 08:50:44;;;;;;;4.57;2.05;;;8.10;99.90;;;;;;5072184;28;20262;-74
2024/02/25 08:53:11;;;;;;;5.90;2.58;;;8.10;99.90;;;;;;5060571;28;20220;-76
2024/02/25 08:55:38;;;;;;;2.28;2.00;;;8.30;99.90;;;;;;5070540;28;20200;-74
2024/02/25 08:58:05;;;;;;;3.80;2.28;;;8.50;99.90;;;;;;5058418;28;20208;-73
2024/02/25 09:00:34;;;;;;;2.72;2.33;;;8.70;99.90;;;;;;5063935;28;20261;-77
2024/02/25 09:03:01;;;;;;;5.13;2.38;;;8.80;99.90;;;;;;5062627;28;20261;-72
2024/02/25 09:05:28;;;;;;;3.17;1.73;;;8.90;99.90;;;;;;5057080;28;20239;-72
2024/02/25 09:07:56;;;;;;;3.10;1.70;;;9.00;99.90;;;;;;5067968;28;20200;-75
2024/02/25 09:10:23;;;;;;;2.40;2.10;;;9.20;99.90;;;;;;5069126;28;20208;-73
2024/02/25 09:12:50;;;;;;;3.70;2.15;;;9.40;99.90;;;;;;5069039;28;20219;-72
2024/02/25 09:15:19;;;;;;;5.50;2.72;;;9.50;99.90;;;;;;5068632;28;20230;-71
2024/02/25 09:17:48;;;;;;;2.55;1.90;;;9.50;99.90;;;;;;5063414;28;20207;-75
2024/02/25 09:20:15;;;;;;;2.00;1.70;;;9.50;99.90;;;;;;5070859;28;20207;-74
2024/02/25 09:22:42;;;;;;;2.03;1.40;;;9.30;99.90;;;;;;5063665;28;20227;-74
2024/02/25 09:25:09;;;;;;;1.90;1.70;;;9.30;99.90;;;;;;5062238;28;20254;-74
2024/02/25 09:27:36;;;;;;;1.65;1.40;;;9.20;99.90;;;;;;5064889;28;20651;-74
2024/02/25 09:30:04;;;;;;;2.17;1.45;;;9.00;99.90;;;;;;5061957;28;20253;-76
2024/02/25 09:32:33;;;;;;;2.95;2.50;;;9.00;99.90;;;;;;5056199;28;20908;-75
2024/02/25 09:35:01;;;;;;;2.90;2.00;;;9.10;99.90;;;;;;5061043;28;20242;-76
2024/02/25 09:37:28;;;;;;;2.40;1.60;;;9.10;99.90;;;;;;5069379;28;20304;-76
2024/02/25 09:39:55;;;;;;;1.80;1.45;;;9.10;99.90;;;;;;5060731;28;20249;-76
2024/02/25 09:42:22;;;;;;;3.22;2.17;;;9.30;99.90;;;;;;5067166;28;20619;-74
2024/02/25 09:44:53;;;;;;;2.92;1.60;;;8.90;99.90;;;;;;5064560;28;20462;-76
2024/02/25 09:47:22;;;;;;;2.70;1.50;;;9.10;99.90;;;;;;5069135;28;20295;-75
2024/02/25 09:49:50;;;;;;;2.55;1.58;;;8.80;99.90;;;;;;5073987;28;20635;-76
2024/02/25 09:52:20;;;;;;;1.88;1.35;;;8.90;99.90;;;;;;5066186;28;20231;-76
2024/02/25 09:54:48;;;;;;;1.98;1.40;;;8.90;99.90;;;;;;5068064;28;20200;-76
2024/02/25 09:57:15;;;;;;;2.47;1.73;;;8.90;99.90;;;;;;5067975;28;20219;-76
2024/02/25 09:59:42;;;;;;;2.25;1.92;;;8.80;99.90;;;;;;5073165;28;20321;-75
2024/02/25 10:02:09;;;;;;;1.52;1.25;;;8.60;99.90;;;;;;5061554;28;20614;-75
2024/02/25 10:04:37;;;;;;;2.72;1.50;;;8.50;99.90;;;;;;5073321;28;20570;-76
2024/02/25 10:07:04;;;;;;;1.80;1.65;;;8.60;99.90;;;;;;5060790;28;20208;-76
2024/02/25 10:09:33;;;;;;;2.20;1.80;;;8.70;99.90;;;;;;5063503;28;20200;-77
2024/02/25 10:12:01;;;;;;;2.03;1.65;;;8.80;99.90;;;;;;5068895;28;20203;-73
2024/02/25 10:14:29;;;;;;;4.00;1.80;;;8.80;99.90;;;;;;5057516;28;20236;-76
2024/02/25 10:17:02;;;;;;;3.58;1.58;;;8.80;99.90;;;;;;5058450;28;20219;-73
2024/02/25 10:19:30;;;;;;;1.70;1.60;;;8.90;99.90;;;;;;5069732;28;20219;-75
2024/02/25 10:22:16;;;;;;;2.53;1.70;;;9.10;99.90;;;;;;5065428;28;20268;-75
2024/02/25 10:24:47;;;;;;;2.58;1.73;;;9.30;99.90;;;;;;5068935;28;20218;-76
2024/02/25 10:27:15;;;;;;;4.63;2.85;;;9.60;99.90;;;;;;5055274;28;20570;-74
2024/02/25 10:29:52;;;;;;;1.85;1.75;;;9.70;99.90;;;;;;5065625;28;20199;-72
2024/02/25 10:32:24;;;;;;;1.95;1.75;;;10.10;99.90;;;;;;5058979;28;20734;-74
2024/02/25 10:34:52;;;;;;;1.88;1.40;;;10.30;99.90;;;;;;5064798;28;20245;-75
2024/02/25 10:37:21;;;;;;;3.65;1.83;;;10.40;99.90;;;;;;5067015;28;20324;-73
2024/02/25 10:39:52;;;;;;;6.35;1.40;;;10.20;99.90;;;;;;5064422;28;20273;-76
2024/02/25 10:42:26;;;;;;;5.65;2.78;;;10.40;99.90;;;;;;5066699;28;20207;-73
2024/02/25 10:44:54;;;;;;;2.50;1.75;;;10.10;99.90;;;;;;5068832;28;20207;-75
2024/02/25 10:47:23;;;;;;;2.20;1.52;;;10.10;99.90;;;;;;5058289;28;20258;-75
2024/02/25 10:49:52;;;;;;;6.05;1.90;;;10.10;99.90;;;;;;5061973;28;20701;-74
2024/02/25 10:52:20;;;;;;;4.55;1.55;;;10.10;99.90;;;;;;5072718;28;20207;-73
2024/02/25 10:54:50;;;;;;;3.30;1.70;;;10.10;99.90;;;;;;5068414;28;20290;-76
2024/02/25 10:57:18;;;;;;;1.70;1.60;;;9.70;99.90;;;;;;5062368;28;20219;-73
2024/02/25 10:59:47;;;;;;;5.20;2.40;;;9.70;99.90;;;;;;5065002;28;20682;-73
2024/02/25 11:02:16;;;;;;;2.65;2.25;;;9.80;99.90;;;;;;5061578;28;20294;-76
2024/02/25 11:04:45;;;;;;;2.30;2.00;;;10.00;99.90;;;;;;5062820;28;20226;-75
2024/02/25 11:07:12;;;;;;;2.33;1.58;;;10.00;99.90;;;;;;5064752;28;20723;-72
2024/02/25 11:09:39;;;;;;;3.15;1.60;;;9.80;99.90;;;;;;5061516;28;20261;-73
2024/02/25 11:12:20;;;;;;;10.25;3.22;;;9.70;99.90;;;;;;5064383;28;20669;-71
2024/02/25 11:14:53;;;;;;;1.60;1.50;;;9.80;99.90;;;;;;5063687;28;20211;-75
2024/02/25 11:17:27;;;;;;;4.78;2.20;;;9.80;99.90;;;;;;5068776;28;20585;-75
2024/02/25 11:20:06;;;;;;;2.00;1.83;;;9.90;99.90;;;;;;5067257;28;20203;-75
2024/02/25 11:22:44;;;;;;;2.15;1.60;;;9.50;99.90;;;;;;5070612;28;20631;-78
2024/02/25 11:25:35;;;;;;;1.20;1.10;;;9.20;99.90;;;;;;5068411;28;20727;-72
2024/02/25 11:28:05;;;;;;;1.50;1.40;;;9.00;99.90;;;;;;5062890;28;20202;-73
2024/02/25 11:30:36;;;;;;;2.75;2.05;;;8.60;99.90;;;;;;5072110;28;20195;-74
2024/02/25 11:33:23;;;;;;;1.77;1.65;;;8.40;99.90;;;;;;5058412;28;20224;-71
2024/02/25 11:35:50;;;;;;;1.75;1.48;;;8.40;99.90;;;;;;5057289;28;20204;-75
2024/02/25 11:38:21;;;;;;;3.28;1.95;;;8.60;99.90;;;;;;5074624;28;20313;-74
2024/02/25 11:40:49;;;;;;;2.22;2.03;;;8.70;99.90;;;;;;5069023;28;20207;-72
2024/02/25 11:43:17;;;;;;;2.40;2.20;;;8.50;99.90;;;;;;5065302;28;20277;-72
2024/02/25 11:45:44;;;;;;;2.00;1.88;;;8.60;99.90;;;;;;5080233;28;20245;-73
2024/02/25 11:48:12;;;;;;;2.20;2.00;;;8.60;99.90;;;;;;5076455;28;20552;-74
2024/02/25 11:50:39;;;;;;;2.10;1.85;;;8.60;99.90;;;;;;5073732;28;20210;-75
2024/02/25 11:53:06;;;;;;;2.72;2.53;;;8.80;99.90;;;;;;5057846;28;20227;-77
2024/02/25 11:55:33;;;;;;;2.35;2.15;;;8.80;99.90;;;;;;5069153;28;20207;-75
2024/02/25 11:58:00;;;;;;;2.33;2.13;;;9.10;99.90;;;;;;5063182;28;20219;-76
2024/02/25 12:00:29;;;;;;;3.22;1.80;;;9.40;99.90;;;;;;5072781;28;20200;-72
2024/02/25 12:02:57;;;;;;;1.90;1.80;;;9.60;99.90;;;;;;5070717;28;20223;-76
2024/02/25 12:05:24;;;;;;;2.13;1.80;;;9.70;99.90;;;;;;5069466;28;20207;-73
2024/02/25 12:07:57;;;;;;;3.38;2.50;;;9.70;99.90;;;;;;5070242;28;20256;-73
2024/02/25 12:10:24;;;;;;;2.78;2.20;;;9.60;99.90;;;;;;5068393;28;20701;-76
2024/02/25 12:12:52;;;;;;;3.30;2.35;;;9.50;99.90;;;;;;5071342;28;20600;-74
2024/02/25 12:15:20;;;;;;;2.35;2.15;;;9.60;99.90;;;;;;5073004;28;20215;-76
2024/02/25 12:17:48;;;;;;;2.20;2.10;;;9.80;99.90;;;;;;5075257;28;20207;-73
2024/02/25 12:20:17;;;;;;;5.50;2.80;;;9.90;99.90;;;;;;5067672;28;20196;-78
2024/02/25 12:22:45;;;;;;;2.58;2.35;;;9.90;99.90;;;;;;5064200;28;20227;-74
2024/02/25 12:25:16;;;;;;;3.60;3.00;;;9.90;99.90;;;;;;5072207;28;20195;-72
2024/02/25 12:27:44;;;;;;;4.03;3.58;;;9.80;99.90;;;;;;5065367;28;20203;-77
2024/02/25 12:30:12;;;;;;;4.53;3.63;;;9.90;99.90;;;;;;5060481;28;20266;-73
2024/02/25 12:32:39;;;;;;;7.03;3.78;;;9.60;99.90;;;;;;5065527;28;20277;-77
2024/02/25 12:35:09;;;;;;;3.60;3.30;;;9.40;99.90;;;;;;5063146;28;20296;-75
2024/02/25 12:37:36;;;;;;;4.28;3.97;;;9.40;99.90;;;;;;5069583;28;20284;-75
2024/02/25 12:40:08;;;;;;;3.85;3.45;;;9.60;99.90;;;;;;5062208;28;20245;-76
2024/02/25 12:42:35;;;;;;;3.90;3.50;;;9.70;99.90;;;;;;5070805;28;20281;-74
2024/02/25 12:45:02;;;;;;;4.30;3.90;;;9.80;99.90;;;;;;5060362;28;20199;-74
2024/02/25 12:47:30;;;;;;;4.55;2.92;;;9.70;99.90;;;;;;5072959;28;20718;-76
2024/02/25 12:49:56;;;;;;;3.53;3.22;;;9.80;99.90;;;;;;5073471;28;20624;-75
2024/02/25 12:52:24;;;;;;;3.93;3.50;;;9.90;99.90;;;;;;5067102;28;20235;-75
2024/02/25 12:54:52;;;;;;;3.67;2.88;;;9.90;99.90;;;;;;5071350;28;20875;-75
2024/02/25 12:57:19;;;;;;;3.05;2.85;;;10.00;99.90;;;;;;5068558;28;20223;-75
2024/02/25 12:59:46;;;;;;;3.80;3.50;;;10.20;99.90;;;;;;5061127;28;20230;-73